Time;durP1;ratioP1;P1;durP2;ratioP2;P2;SDS_P1;SDS_P2;PMS_P1;PMS_P2;Temp;Humidity;BMP_temperature;BMP_pressure;BME280_temperature;BME280_humidity;BME280_pressure;Samples;Min_cycle;Max_cycle;Signal;HPM_P1;HPM_P2
2023/10/11 00:01:10;;;;;;;19.30;9.98;;;;;;;16.80;100.00;101423.84;5074915;28;20034;-74
2023/10/11 00:03:35;;;;;;;21.20;9.85;;;;;;;16.82;100.00;101416.69;5086289;28;20355;-74
2023/10/11 00:06:05;;;;;;;23.63;9.80;;;;;;;16.77;100.00;101427.53;5078843;28;20376;-74
2023/10/11 00:08:39;;;;;;;28.08;9.88;;;;;;;16.78;100.00;101426.56;5078890;28;20289;-74
2023/10/11 00:11:07;;;;;;;17.30;9.15;;;;;;;16.79;100.00;101428.28;5084494;28;20048;-74
2023/10/11 00:13:33;;;;;;;26.90;9.55;;;;;;;16.77;100.00;101424.88;5094737;28;20040;-74
2023/10/11 00:16:07;;;;;;;21.67;9.68;;;;;;;16.77;100.00;101427.53;5095077;28;20424;-74
2023/10/11 00:18:43;;;;;;;27.42;10.85;;;;;;;16.75;100.00;101424.09;5095023;28;20242;-74
2023/10/11 00:21:15;;;;;;;27.73;10.65;;;;;;;16.77;100.00;101421.38;5094808;28;20084;-74
2023/10/11 00:23:42;;;;;;;18.67;10.35;;;;;;;16.78;100.00;101421.28;5094385;28;20028;-74
2023/10/11 00:26:08;;;;;;;14.90;9.25;;;;;;;16.79;100.00;101427.41;5094378;28;20273;-74
2023/10/11 00:28:34;;;;;;;20.02;10.80;;;;;;;16.77;100.00;101422.25;5090810;28;20039;-74
2023/10/11 00:31:01;;;;;;;21.05;9.50;;;;;;;16.78;100.00;101425.72;5079787;28;20328;-75
2023/10/11 00:33:28;;;;;;;29.15;10.73;;;;;;;16.75;100.00;101420.59;5074461;28;20488;-74
2023/10/11 00:35:55;;;;;;;19.80;9.52;;;;;;;16.74;100.00;101419.75;5075185;28;20395;-74
2023/10/11 00:38:27;;;;;;;16.33;8.80;;;;;;;16.74;100.00;101419.75;5075075;28;20303;-74
2023/10/11 00:41:02;;;;;;;17.92;8.93;;;;;;;16.78;100.00;101416.00;5074806;28;20036;-74
2023/10/11 00:43:39;;;;;;;11.07;7.80;;;;;;;16.78;100.00;101408.06;5074181;28;20032;-74
2023/10/11 00:46:09;;;;;;;15.70;8.88;;;;;;;16.79;100.00;101411.56;5074643;28;20040;-74
2023/10/11 00:49:04;;;;;;;18.92;9.05;;;;;;;16.77;100.00;101402.84;5074155;28;20025;-75
2023/10/11 00:51:31;;;;;;;18.90;8.57;;;;;;;16.78;100.00;101405.41;5074250;28;20247;-74
2023/10/11 00:53:58;;;;;;;20.98;9.23;;;;;;;16.79;100.00;101396.56;5074645;28;20246;-74
2023/10/11 00:56:31;;;;;;;17.35;9.10;;;;;;;16.79;100.00;101393.03;5074674;28;20358;-74
2023/10/11 00:58:57;;;;;;;15.43;8.40;;;;;;;16.79;100.00;101385.09;5074699;28;20339;-74
2023/10/11 01:01:23;;;;;;;13.90;8.10;;;;;;;16.78;100.00;101388.72;5074715;28;20331;-74
2023/10/11 01:03:49;;;;;;;14.60;9.07;;;;;;;16.78;100.00;101384.25;5083622;28;20042;-74
2023/10/11 01:06:15;;;;;;;33.10;12.85;;;;;;;16.76;100.00;101385.31;5079710;28;20099;-74
2023/10/11 01:08:41;;;;;;;21.48;10.95;;;;;;;16.76;100.00;101380.00;5076488;28;20048;-74
2023/10/11 01:11:13;;;;;;;24.30;10.93;;;;;;;16.76;100.00;101385.31;5078084;28;20355;-74
2023/10/11 01:13:41;;;;;;;15.77;9.88;;;;;;;16.77;100.00;101392.28;5080000;28;20090;-74
2023/10/11 01:16:10;;;;;;;17.13;9.98;;;;;;;16.76;100.00;101388.78;5098181;28;20039;-74
2023/10/11 01:18:40;;;;;;;27.85;11.27;;;;;;;16.74;100.00;101385.38;5097781;28;20278;-74
2023/10/11 01:21:07;;;;;;;19.40;10.52;;;;;;;16.72;100.00;101386.41;5098042;28;20042;-74
2023/10/11 01:23:36;;;;;;;23.45;11.80;;;;;;;16.70;100.00;101387.34;5096967;28;20034;-74
2023/10/11 01:26:08;;;;;;;24.42;11.00;;;;;;;16.68;100.00;101383.94;5098105;28;20035;-74
2023/10/11 01:28:34;;;;;;;13.63;8.93;;;;;;;16.69;100.00;101377.69;5097738;28;20410;-74
2023/10/11 01:31:02;;;;;;;28.10;11.02;;;;;;;16.68;100.00;101377.78;5098119;28;20097;-74
2023/10/11 01:33:27;;;;;;;23.02;10.18;;;;;;;16.67;100.00;101374.31;5098241;28;20036;-74
2023/10/11 01:35:53;;;;;;;16.38;9.68;;;;;;;16.67;100.00;101371.66;5098229;28;20211;-74
2023/10/11 01:38:18;;;;;;;23.02;10.63;;;;;;;16.66;100.00;101366.44;5098174;28;20047;-74
2023/10/11 01:40:44;;;;;;;22.63;10.85;;;;;;;16.65;100.00;101359.47;5097549;28;20038;-74
2023/10/11 01:43:10;;;;;;;30.38;12.80;;;;;;;16.61;100.00;101361.44;5097975;28;20063;-74
2023/10/11 01:45:39;;;;;;;22.27;11.18;;;;;;;16.62;100.00;101357.00;5097279;28;20044;-74
2023/10/11 01:48:07;;;;;;;18.88;10.30;;;;;;;16.63;100.00;101350.78;5096639;28;20032;-74
2023/10/11 01:50:33;;;;;;;15.43;10.90;;;;;;;16.62;100.00;101357.84;5090566;28;20040;-74
2023/10/11 01:52:59;;;;;;;18.52;9.98;;;;;;;16.61;100.00;101347.38;5089887;28;20327;-74
2023/10/11 01:55:24;;;;;;;17.35;10.02;;;;;;;16.61;100.00;101350.88;5092105;28;20077;-74
2023/10/11 01:57:50;;;;;;;20.42;10.38;;;;;;;16.59;100.00;101336.00;5088475;28;20358;-74
2023/10/11 02:00:24;;;;;;;15.13;9.88;;;;;;;16.58;100.00;101332.53;5093592;28;20064;-74
2023/10/11 02:02:55;;;;;;;20.60;10.65;;;;;;;16.57;100.00;101324.69;5089593;28;20039;-74
2023/10/11 02:05:24;;;;;;;25.70;12.02;;;;;;;16.53;100.00;101326.66;5097778;28;20073;-74
2023/10/11 02:07:50;;;;;;;22.77;11.80;;;;;;;16.53;100.00;101321.38;5097094;28;20040;-74
2023/10/11 02:10:25;;;;;;;24.95;11.38;;;;;;;16.53;100.00;101320.53;5096937;28;20582;-74
2023/10/11 02:12:50;;;;;;;19.88;10.57;;;;;;;16.51;100.00;101332.03;5097310;28;20151;-74
2023/10/11 02:15:27;;;;;;;14.32;10.02;;;;;;;16.53;100.00;101328.44;5094906;28;20340;-74
2023/10/11 02:17:57;;;;;;;18.85;10.27;;;;;;;16.53;100.00;101339.88;5088745;28;20036;-74
2023/10/11 02:20:22;;;;;;;14.88;8.93;;;;;;;16.53;100.00;101339.88;5096515;28;20243;-74
2023/10/11 02:22:55;;;;;;;13.00;8.65;;;;;;;16.52;100.00;101330.25;5095424;28;20028;-74
2023/10/11 02:25:24;;;;;;;13.90;10.07;;;;;;;16.50;100.00;101340.06;5096642;28;20040;-74
2023/10/11 02:27:53;;;;;;;17.83;10.02;;;;;;;16.47;100.00;101335.78;5096750;28;20103;-74
2023/10/11 02:30:27;;;;;;;21.23;10.85;;;;;;;16.48;100.00;101336.63;5096985;28;20070;-74
2023/10/11 02:32:58;;;;;;;15.95;9.55;;;;;;;16.46;100.00;101335.88;5097874;28;20048;-74
2023/10/11 02:35:26;;;;;;;20.48;9.90;;;;;;;16.45;100.00;101334.19;5093926;28;20063;-74
2023/10/11 02:37:55;;;;;;;13.88;9.55;;;;;;;16.46;100.00;101338.50;5086273;28;20304;-74
2023/10/11 02:40:24;;;;;;;;;;;;;;;16.40;100.00;101328.31;5095080;28;20335;-74
2023/10/11 02:42:50;;;;;;;;;;;;;;;16.40;100.00;101323.88;5087844;28;19912;-74
2023/10/11 02:45:19;;;;;;;17.58;9.32;;;;;;;16.39;100.00;101321.31;5095962;28;19922;-74
2023/10/11 02:47:59;;;;;;;;;;;;;;;16.34;100.00;101320.75;5087470;28;20028;-73
2023/10/11 02:50:28;;;;;;;17.15;10.60;;;;;;;16.31;100.00;101327.88;5096628;28;20223;-73
2023/10/11 02:53:05;;;;;;;23.48;12.30;;;;;;;16.26;100.00;101321.16;5096212;28;20035;-73
2023/10/11 02:55:30;;;;;;;25.55;12.30;;;;;;;16.26;100.00;101321.16;5093694;28;20382;-74
2023/10/11 02:58:06;;;;;;;24.77;13.07;;;;;;;16.25;100.00;101325.59;5086391;28;20039;-74
2023/10/11 03:00:33;;;;;;;18.52;11.52;;;;;;;16.25;100.00;101322.94;5094485;28;20054;-74
2023/10/11 03:03:00;;;;;;;25.85;12.35;;;;;;;16.23;100.00;101316.91;5096163;28;20035;-74
2023/10/11 03:05:29;;;;;;;18.67;11.35;;;;;;;16.23;100.00;101316.06;5095165;28;20231;-74
2023/10/11 03:08:13;;;;;;;14.65;10.40;;;;;;;16.24;100.00;101318.59;5076279;28;20032;-74
2023/10/11 03:10:47;;;;;;;15.23;9.88;;;;;;;16.24;100.00;101317.75;5075663;28;20050;-74
2023/10/11 03:13:19;;;;;;;15.25;10.32;;;;;;;16.23;100.00;101316.06;5076481;28;20028;-74
2023/10/11 03:15:54;;;;;;;16.85;9.82;;;;;;;16.24;100.00;101315.94;5075641;28;20025;-74
2023/10/11 03:18:27;;;;;;;27.55;12.35;;;;;;;16.23;100.00;101319.56;5076196;28;20028;-74
2023/10/11 03:21:08;;;;;;;17.50;10.95;;;;;;;16.23;100.00;101314.25;5077134;28;20091;-74
2023/10/11 03:23:37;;;;;;;14.27;10.55;;;;;;;16.23;100.00;101311.63;5075202;28;20070;-73
2023/10/11 03:26:08;;;;;;;22.40;10.20;;;;;;;16.24;100.00;101308.03;5075612;28;20212;-73
2023/10/11 03:28:33;;;;;;;17.90;10.73;;;;;;;16.24;100.00;101307.19;5075405;28;20143;-73
2023/10/11 03:30:59;;;;;;;15.02;9.55;;;;;;;16.25;100.00;101308.91;5074918;28;20394;-73
2023/10/11 03:33:24;;;;;;;21.40;11.10;;;;;;;16.22;100.00;101307.25;5075817;28;20096;-74
2023/10/11 03:35:50;;;;;;;29.00;12.55;;;;;;;16.20;100.00;101306.50;5075241;28;20032;-73
2023/10/11 03:38:17;;;;;;;19.80;12.45;;;;;;;16.20;100.00;101297.72;5075546;28;20262;-73
2023/10/11 03:40:55;;;;;;;20.48;11.50;;;;;;;16.15;100.00;101287.41;5074779;28;20103;-74
2023/10/11 03:43:23;;;;;;;15.02;10.65;;;;;;;16.16;100.00;101290.94;5075798;28;20051;-74
2023/10/11 03:45:56;;;;;;;19.45;11.48;;;;;;;16.16;100.00;101293.56;5074863;28;20103;-74
2023/10/11 03:48:27;;;;;;;20.00;11.07;;;;;;;16.17;100.00;101295.25;5075653;28;20030;-74
2023/10/11 03:50:53;;;;;;;23.67;13.07;;;;;;;16.11;100.00;101286.72;5075400;28;20029;-73
2023/10/11 03:53:18;;;;;;;18.70;10.90;;;;;;;16.14;100.00;101285.72;5075329;28;20043;-73
2023/10/11 03:55:46;;;;;;;22.65;12.18;;;;;;;16.12;100.00;101299.03;5074588;28;20043;-74
2023/10/11 03:58:37;;;;;;;21.40;13.45;;;;;;;16.12;100.00;101292.88;5087502;28;20032;-74
2023/10/11 04:01:13;;;;;;;15.35;10.52;;;;;;;16.15;100.00;101291.84;5091850;28;20082;-74
2023/10/11 04:03:42;;;;;;;15.60;10.53;;;;;;;16.16;100.00;101290.94;5074520;28;20042;-74
2023/10/11 04:06:14;;;;;;;24.50;13.07;;;;;;;16.14;100.00;101291.00;5078799;28;20424;-73
2023/10/11 04:08:48;;;;;;;20.25;11.15;;;;;;;16.15;100.00;101292.69;5094765;28;20031;-74
2023/10/11 04:11:19;;;;;;;22.48;12.77;;;;;;;16.14;100.00;101288.38;5093446;28;20043;-73
2023/10/11 04:13:49;;;;;;;23.48;12.90;;;;;;;16.17;100.00;101287.31;5094932;28;20104;-74
2023/10/11 04:16:17;;;;;;;18.00;11.85;;;;;;;16.18;100.00;101289.03;5094473;28;20044;-74
2023/10/11 04:18:43;;;;;;;20.35;12.18;;;;;;;16.18;100.00;101287.25;5094724;28;20517;-73
2023/10/11 04:23:55;;;;;;;21.80;12.05;;;;;;;16.15;100.00;101276.84;5095199;28;20074;-73
2023/10/11 04:28:58;;;;;;;25.25;12.93;;;;;;;16.14;100.00;101275.16;5095247;28;20071;-74
2023/10/11 04:31:36;;;;;;;18.52;12.20;;;;;;;16.16;100.00;101280.34;5095505;28;20024;-74
2023/10/11 04:34:11;;;;;;;27.35;14.13;;;;;;;16.16;100.00;101275.06;5095337;28;20032;-74
2023/10/11 04:36:42;;;;;;;22.92;12.90;;;;;;;16.15;100.00;101276.84;5094554;28;20358;-73
2023/10/11 04:39:27;;;;;;;20.95;12.00;;;;;;;16.18;100.00;101292.53;5095067;28;20065;-74
2023/10/11 04:41:57;;;;;;;16.38;11.65;;;;;;;16.18;100.00;101291.69;5094310;28;20028;-73
2023/10/11 04:44:31;;;;;;;24.58;12.13;;;;;;;16.18;100.00;101297.81;5094764;28;20098;-74
2023/10/11 04:46:58;;;;;;;25.73;13.20;;;;;;;16.19;100.00;101294.25;5086884;28;20036;-74
2023/10/11 04:49:25;;;;;;;27.70;14.23;;;;;;;16.20;100.00;101287.16;5074756;28;20036;-73
2023/10/11 04:51:56;;;;;;;24.65;13.68;;;;;;;16.19;100.00;101283.69;5074156;28;20213;-74
2023/10/11 04:54:22;;;;;;;20.02;12.13;;;;;;;16.19;100.00;101272.22;5074944;28;20036;-73
2023/10/11 05:04:15;;;;;;;22.90;11.55;;;;;;;16.25;100.00;101290.41;5086493;28;20078;-74
2023/10/11 05:06:41;;;;;;;28.75;13.55;;;;;;;16.23;100.00;101298.41;5091872;28;20323;-74
2023/10/11 05:09:21;;;;;;;23.55;12.10;;;;;;;16.24;100.00;101294.81;5088534;28;20126;-73
2023/10/11 05:11:50;;;;;;;19.30;12.35;;;;;;;16.24;100.00;101286.03;5078721;28;20037;-73
2023/10/11 05:14:31;;;;;;;31.70;15.50;;;;;;;16.23;100.00;101284.34;5084066;28;20099;-73
2023/10/11 05:22:48;;;;;;;30.73;15.80;;;;;;;16.20;100.00;101281.88;5082525;28;20044;-74
2023/10/11 05:28:07;;;;;;;19.55;11.77;;;;;;;16.24;100.00;101280.75;5079825;28;20043;-73
2023/10/11 05:30:34;;;;;;;24.38;13.18;;;;;;;16.25;100.00;101283.31;5090777;28;20044;-74
2023/10/11 05:52:09;;;;;;;28.10;13.27;;;;;;;16.23;100.00;101250.84;5084538;28;20038;-73
2023/10/11 05:54:37;;;;;;;26.20;13.48;;;;;;;16.23;100.00;101257.94;5087712;28;20032;-74
2023/10/11 05:57:05;;;;;;;26.27;12.68;;;;;;;16.26;100.00;101268.31;5089700;28;20080;-74
2023/10/11 05:59:32;;;;;;;23.42;11.80;;;;;;;16.26;100.00;101274.47;5089334;28;20040;-74
2023/10/11 06:01:58;;;;;;;19.60;11.73;;;;;;;16.28;100.00;101282.28;5091091;28;20033;-73
2023/10/11 06:04:23;;;;;;;33.40;14.15;;;;;;;16.27;100.00;101284.06;5092727;28;20381;-74
2023/10/11 06:06:57;;;;;;;29.67;13.85;;;;;;;16.28;100.00;101290.19;5087070;28;20063;-74
2023/10/11 06:09:26;;;;;;;22.23;11.35;;;;;;;16.28;100.00;101287.56;5090351;28;20054;-73
2023/10/11 06:11:52;;;;;;;33.20;12.75;;;;;;;16.28;100.00;101290.19;5087032;28;20362;-73
2023/10/11 06:14:18;;;;;;;28.60;11.95;;;;;;;16.30;100.00;101304.22;5090266;28;20040;-74
2023/10/11 06:16:49;;;;;;;31.95;14.13;;;;;;;16.31;100.00;101303.25;5087384;28;20101;-74
2023/10/11 06:19:18;;;;;;;29.55;12.50;;;;;;;16.29;100.00;101295.41;5091912;28;20311;-73
2023/10/11 06:21:57;;;;;;;23.67;11.73;;;;;;;16.33;100.00;101301.38;5091128;28;20276;-73
2023/10/11 06:24:33;;;;;;;23.92;10.85;;;;;;;16.36;100.00;101306.47;5087377;28;20040;-74
2023/10/11 06:29:45;;;;;;;27.52;12.85;;;;;;;16.34;100.00;101308.38;5091462;28;20054;-74
2023/10/11 06:32:12;;;;;;;23.35;11.10;;;;;;;16.37;100.00;101313.50;5091367;28;20404;-74
2023/10/11 06:34:38;;;;;;;35.50;13.13;;;;;;;16.37;100.00;101312.63;5074185;28;20032;-74
2023/10/11 06:37:06;;;;;;;36.58;12.63;;;;;;;16.37;100.00;101308.19;5080815;28;20243;-74
2023/10/11 06:42:23;;;;;;;22.95;11.57;;;;;;;16.41;100.00;101295.63;5074518;28;20036;-74
2023/10/11 06:44:52;;;;;;;41.53;14.18;;;;;;;16.42;100.00;101300.00;5074339;28;20103;-74
2023/10/11 06:47:19;;;;;;;28.00;12.63;;;;;;;16.39;100.00;101295.75;5076376;28;20112;-74
2023/10/11 06:49:49;;;;;;;23.42;11.88;;;;;;;16.41;100.00;101291.22;5075404;28;20032;-74
2023/10/11 06:52:17;;;;;;;35.47;12.43;;;;;;;16.42;100.00;101292.06;5076211;28;20032;-74
2023/10/11 06:54:47;;;;;;;30.80;12.70;;;;;;;16.41;100.00;101288.56;5075482;28;20036;-73
2023/10/11 06:57:17;;;;;;;24.52;11.88;;;;;;;16.44;100.00;101296.31;5079003;28;20036;-73
2023/10/11 06:59:43;;;;;;;21.90;10.70;;;;;;;16.48;100.00;101312.84;5096292;28;20054;-74
2023/10/11 07:02:18;;;;;;;33.47;13.45;;;;;;;16.48;100.00;101310.19;5092104;28;20342;-74
2023/10/11 07:04:52;;;;;;;20.60;11.60;;;;;;;16.50;100.00;101309.19;5076434;28;20335;-74
2023/10/11 07:07:18;;;;;;;35.78;12.30;;;;;;;16.50;100.00;101318.91;5086303;28;20032;-74
2023/10/11 07:09:56;;;;;;;31.70;12.95;;;;;;;16.51;100.00;101318.81;5085476;28;20031;-74
2023/10/11 07:12:28;;;;;;;35.20;12.20;;;;;;;16.51;100.00;101312.66;5092980;28;20085;-74
2023/10/11 07:14:57;;;;;;;28.63;12.65;;;;;;;16.51;100.00;101325.88;5092644;28;20035;-74
2023/10/11 07:17:28;;;;;;;28.05;11.93;;;;;;;16.51;100.00;101339.09;5091998;28;20063;-74
2023/10/11 07:19:57;;;;;;;38.00;13.52;;;;;;;16.51;100.00;101328.53;5094091;28;20034;-74
2023/10/11 07:22:26;;;;;;;38.30;13.30;;;;;;;16.51;100.00;101331.19;5091237;28;20312;-74
2023/10/11 07:25:12;;;;;;;27.23;12.15;;;;;;;16.56;100.00;101338.84;5093160;28;20051;-74
2023/10/11 07:27:42;;;;;;;22.92;10.95;;;;;;;16.57;100.00;101329.97;5090440;28;20254;-74
2023/10/11 07:30:16;;;;;;;31.50;11.30;;;;;;;16.59;100.00;101321.03;5092609;28;20028;-74
2023/10/11 07:32:45;;;;;;;29.45;11.95;;;;;;;16.61;100.00;101313.84;5094117;28;20422;-74
2023/10/11 07:35:19;;;;;;;37.38;12.07;;;;;;;16.63;100.00;101319.06;5091913;28;20035;-74
2023/10/11 07:37:44;;;;;;;32.50;12.18;;;;;;;16.64;100.00;101331.31;5090202;28;20039;-74
2023/10/11 07:40:18;;;;;;;30.40;11.75;;;;;;;16.65;100.00;101333.88;5091839;28;20204;-74
2023/10/11 07:42:44;;;;;;;32.08;12.77;;;;;;;16.67;100.00;101339.09;5091552;28;20046;-74
2023/10/11 07:45:15;;;;;;;39.10;13.20;;;;;;;16.66;100.00;101340.00;5090270;28;20032;-74
2023/10/11 07:47:48;;;;;;;29.33;12.25;;;;;;;16.68;100.00;101340.75;5087525;28;20341;-74
2023/10/11 07:50:22;;;;;;;38.55;13.18;;;;;;;16.67;100.00;101337.28;5091590;28;20323;-74
2023/10/11 07:52:48;;;;;;;31.38;12.68;;;;;;;16.69;100.00;101340.69;5088927;28;20327;-74
2023/10/11 07:55:13;;;;;;;48.20;13.95;;;;;;;16.69;100.00;101334.56;5083891;28;20069;-74
2023/10/11 07:57:44;;;;;;;44.22;12.70;;;;;;;16.70;100.00;101346.84;5076444;28;20243;-74
2023/10/11 08:00:17;;;;;;;33.08;12.20;;;;;;;16.72;100.00;101346.72;5094909;28;20036;-74
2023/10/11 08:03:04;;;;;;;35.00;13.20;;;;;;;16.70;100.00;101347.69;5074816;28;20212;-74
2023/10/11 08:05:33;;;;;;;32.13;12.32;;;;;;;16.73;100.00;101357.22;5084648;28;20308;-74
2023/10/11 08:07:59;;;;;;;40.90;13.38;;;;;;;16.74;100.00;101361.59;5085793;28;20035;-74
2023/10/11 08:10:33;;;;;;;30.23;11.40;;;;;;;16.76;100.00;101372.06;5090220;28;20051;-74
2023/10/11 08:13:03;;;;;;;20.40;9.63;;;;;;;16.77;100.00;101355.25;5081792;28;20043;-74
2023/10/11 08:15:29;;;;;;;16.55;8.27;;;;;;;16.80;100.00;101363.00;5093397;28;20024;-74
2023/10/11 08:17:54;;;;;;;16.70;7.70;;;;;;;16.82;100.00;101363.78;5090798;28;20056;-74
2023/10/11 08:20:28;;;;;;;11.07;7.43;;;;;;;16.84;100.00;101364.56;5091185;28;20364;-74
2023/10/11 08:22:55;;;;;;;13.95;7.40;;;;;;;16.87;100.00;101378.47;5087871;28;20033;-74
2023/10/11 08:25:28;;;;;;;19.92;8.50;;;;;;;16.88;100.00;101366.94;5089226;28;20031;-74
2023/10/11 08:28:12;;;;;;;20.90;7.50;;;;;;;16.87;100.00;101367.03;5090309;28;20024;-74
2023/10/11 08:30:45;;;;;;;23.05;6.13;;;;;;;16.88;100.00;101355.50;5087621;28;20469;-74
2023/10/11 08:33:12;;;;;;;20.27;6.75;;;;;;;16.87;100.00;101364.41;5092570;28;20035;-74
2023/10/11 08:35:38;;;;;;;10.52;5.20;;;;;;;16.89;100.00;101378.38;5092085;28;20052;-74
2023/10/11 08:38:06;;;;;;;8.68;5.60;;;;;;;16.91;100.00;101367.72;5082136;28;20208;-74
2023/10/11 08:40:35;;;;;;;;;;;;;;;16.91;100.00;101357.13;5086339;28;20051;-74
2023/10/11 08:43:02;;;;;;;11.75;5.45;;;;;;;16.93;100.00;101366.66;5079450;28;19920;-74
2023/10/11 08:45:32;;;;;;;10.25;5.28;;;;;;;16.93;100.00;101374.59;5082059;28;20093;-75
2023/10/11 08:48:05;;;;;;;13.60;5.35;;;;;;;16.93;100.00;101371.09;5083870;28;20035;-75
2023/10/11 08:50:34;;;;;;;12.43;5.05;;;;;;;16.92;100.00;101359.69;5086653;28;20046;-74
2023/10/11 08:53:01;;;;;;;;;;;;;;;16.95;100.00;101367.41;5092724;28;20035;-74
2023/10/11 08:55:26;;;;;;;9.65;4.88;;;;;;;16.96;100.00;101358.56;5084548;28;20489;-74
2023/10/11 08:57:53;;;;;;;13.55;5.40;;;;;;;16.96;100.00;101355.91;5093398;28;20036;-73
2023/10/11 09:00:29;;;;;;;12.45;5.95;;;;;;;16.95;100.00;101353.34;5090443;28;20032;-74
2023/10/11 09:03:19;;;;;;;15.30;6.15;;;;;;;16.96;100.00;101357.72;5092823;28;20060;-74
2023/10/11 09:05:47;;;;;;;16.75;6.38;;;;;;;16.97;100.00;101364.69;5085246;28;20047;-74
2023/10/11 09:08:20;;;;;;;12.02;6.28;;;;;;;16.97;100.00;101354.09;5090987;28;20032;-74
2023/10/11 09:10:49;;;;;;;18.05;5.50;;;;;;;16.99;100.00;101353.09;5077460;28;20243;-74
2023/10/11 09:13:26;;;;;;;13.30;5.45;;;;;;;17.02;100.00;101352.88;5094079;28;20401;-74
2023/10/11 09:15:54;;;;;;;14.70;5.70;;;;;;;17.04;100.00;101366.88;5093853;28;20379;-74
2023/10/11 09:18:21;;;;;;;18.23;6.50;;;;;;;17.05;100.00;101371.22;5090635;28;20098;-74
2023/10/11 09:20:58;;;;;;;11.30;5.43;;;;;;;17.08;100.00;101371.06;5093258;28;20180;-74
2023/10/11 09:23:46;;;;;;;8.30;5.38;;;;;;;17.10;100.00;101370.97;5093164;28;20028;-74
2023/10/11 09:26:20;;;;;;;14.48;5.30;;;;;;;17.13;100.00;101365.47;5089932;28;20134;-74
2023/10/11 09:28:56;;;;;;;19.55;6.35;;;;;;;17.15;100.00;101378.63;5093784;28;20121;-74
2023/10/11 09:31:23;;;;;;;14.15;6.05;;;;;;;17.15;100.00;101383.91;5086642;28;20031;-74
2023/10/11 09:33:51;;;;;;;14.10;5.97;;;;;;;17.15;100.00;101391.84;5089148;28;20063;-74
2023/10/11 09:36:19;;;;;;;;;;;;;;;17.15;100.00;101398.00;5093306;28;20359;-74
2023/10/11 09:38:45;;;;;;;9.95;5.30;;;;;;;17.17;100.00;101400.56;5094644;28;19916;-74
2023/10/11 09:41:13;;;;;;;8.15;4.90;;;;;;;17.19;100.00;101391.59;5097319;28;20195;-74
2023/10/11 09:43:45;;;;;;;11.18;5.65;;;;;;;17.21;100.00;101383.56;5096259;28;20027;-74
2023/10/11 09:46:12;;;;;;;18.08;6.25;;;;;;;17.22;100.00;101385.25;5097662;28;20354;-74
2023/10/11 09:48:42;;;;;;;15.80;6.22;;;;;;;17.25;100.00;101382.44;5095893;28;20036;-74
2023/10/11 09:51:14;;;;;;;14.15;6.18;;;;;;;17.27;100.00;101384.03;5096499;28;20028;-74
2023/10/11 09:53:49;;;;;;;17.17;6.68;;;;;;;17.34;100.00;101389.81;5096588;28;20054;-74
2023/10/11 09:56:39;;;;;;;14.88;5.55;;;;;;;17.38;100.00;101375.44;5097210;28;20040;-74
2023/10/11 09:59:29;;;;;;;15.18;5.88;;;;;;;17.45;100.00;101382.06;5082557;28;20028;-75
2023/10/11 10:02:14;;;;;;;12.95;5.63;;;;;;;17.52;100.00;101386.97;5092439;28;20056;-74
2023/10/11 10:04:51;;;;;;;10.20;5.25;;;;;;;17.57;100.00;101385.78;5089430;28;20054;-74
2023/10/11 10:08:01;;;;;;;21.38;5.65;;;;;;;17.60;100.00;101387.38;5097455;28;20032;-74
2023/10/11 10:10:08;;;;;;;11.05;5.13;;;;;;;17.64;100.00;101386.22;5090815;28;20043;-74
2023/10/11 10:12:55;;;;;;;12.63;5.32;;;;;;;17.65;100.00;101377.34;5077308;28;20033;-74
2023/10/11 10:15:23;;;;;;;16.00;6.15;;;;;;;17.68;100.00;101390.38;5093275;28;20378;-74
2023/10/11 10:17:57;;;;;;;6.10;4.05;;;;;;;17.72;100.00;101377.81;5083910;28;20044;-74
2023/10/11 10:20:49;;;;;;;13.95;4.80;;;;;;;17.76;100.00;101376.69;5093736;28;20335;-74
2023/10/11 10:23:14;;;;;;;13.60;4.88;;;;;;;17.78;100.00;101372.13;5096513;28;20052;-74
2023/10/11 10:25:46;;;;;;;15.90;4.50;;;;;;;17.81;100.00;101378.09;5088282;28;20047;-74
2023/10/11 10:28:39;;;;;;;10.07;4.20;;;;;;;17.84;100.00;101366.44;5087094;28;20355;-74
2023/10/11 10:31:17;;;;;;;6.35;4.05;;;;;;;17.88;100.00;101369.78;5096052;28;20042;-74
2023/10/11 10:34:04;;;;;;;13.23;4.32;;;;;;;17.95;100.00;101355.19;5095143;28;20039;-74
2023/10/11 10:36:31;;;;;;;8.57;3.55;;;;;;;18.01;100.00;101339.78;5095874;28;20075;-74
2023/10/11 10:38:59;;;;;;;9.10;4.28;;;;;;;18.08;100.00;101337.59;5093110;28;20066;-74
2023/10/11 10:41:26;;;;;;;9.48;3.28;;;;;;;18.16;100.00;101337.94;5090182;28;20377;-74
2023/10/11 10:44:08;;;;;;;10.10;4.13;;;;;;;18.22;100.00;101337.50;5086493;28;20036;-74
2023/10/11 10:46:35;;;;;;;11.73;4.40;;;;;;;18.24;100.00;101334.78;5095779;28;20123;-74
2023/10/11 10:49:02;;;;;;;13.95;5.38;;;;;;;18.24;100.00;101332.13;5092942;28;20419;-74
2023/10/11 10:51:37;;;;;;;10.50;4.18;;;;;;;18.30;100.00;101345.00;5093808;28;20059;-74
2023/10/11 10:54:12;;;;;;;8.93;3.80;;;;;;;18.34;100.00;101341.19;5092142;28;20035;-74
2023/10/11 10:56:39;;;;;;;6.72;3.83;;;;;;;18.40;100.00;101331.97;5094916;28;20358;-74
2023/10/11 10:59:12;;;;;;;7.97;3.75;;;;;;;18.41;100.00;101329.22;5092805;28;20367;-74
2023/10/11 11:01:47;;;;;;;12.20;4.20;;;;;;;18.39;100.00;101322.31;5089318;28;20054;-74
2023/10/11 11:04:16;;;;;;;9.57;3.85;;;;;;;18.38;100.00;101312.66;5083511;28;20349;-74
2023/10/11 11:06:44;;;;;;;10.52;4.10;;;;;;;18.36;100.00;101304.81;5091310;28;20046;-74
2023/10/11 11:09:15;;;;;;;9.43;4.53;;;;;;;18.34;100.00;101316.47;5079892;28;20098;-74
2023/10/11 11:11:41;;;;;;;15.38;3.67;;;;;;;18.32;100.00;101319.22;5094492;28;20354;-74
2023/10/11 11:14:24;;;;;;;9.38;3.42;;;;;;;18.34;100.00;101306.72;5093000;28;20119;-74
2023/10/11 11:17:00;;;;;;;9.32;3.85;;;;;;;18.36;100.00;101307.47;5092240;28;20089;-74
2023/10/11 11:19:27;;;;;;;14.70;4.15;;;;;;;18.43;100.00;101315.88;5094590;28;20032;-74
2023/10/11 11:22:19;;;;;;;8.65;3.88;;;;;;;18.51;100.00;101321.50;5094512;28;20107;-74
2023/10/11 11:24:45;;;;;;;7.85;3.95;;;;;;;18.56;100.00;101315.91;5092838;28;20343;-74
2023/10/11 11:27:25;;;;;;;13.23;3.75;;;;;;;18.58;100.00;101306.03;5086881;28;20095;-74
2023/10/11 11:29:55;;;;;;;21.63;4.22;;;;;;;18.58;100.00;101320.13;5085810;28;20100;-74
2023/10/11 11:32:41;;;;;;;7.97;3.38;;;;;;;18.56;100.00;101337.97;5086248;28;20024;-75
2023/10/11 11:35:15;;;;;;;11.23;3.75;;;;;;;18.52;100.00;101331.16;5089468;28;20071;-75
2023/10/11 11:38:05;;;;;;;10.15;3.33;;;;;;;18.49;100.00;101328.72;5088174;28;20020;-74
2023/10/11 11:40:36;;;;;;;8.07;3.10;;;;;;;18.53;100.00;101326.72;5089892;28;20074;-75
2023/10/11 11:43:03;;;;;;;11.57;3.40;;;;;;;18.52;100.00;101317.03;5082316;28;20028;-74
2023/10/11 11:45:35;;;;;;;8.27;2.78;;;;;;;18.55;100.00;101314.19;5087699;28;20072;-74
2023/10/11 11:48:05;;;;;;;12.27;3.22;;;;;;;18.57;100.00;101297.25;5095314;28;20345;-74
2023/10/11 11:50:33;;;;;;;8.63;2.95;;;;;;;18.60;100.00;101301.47;5087104;28;20035;-75
2023/10/11 11:53:02;;;;;;;11.48;3.33;;;;;;;18.60;100.00;101307.63;5093897;28;20023;-74
2023/10/11 11:55:28;;;;;;;5.10;3.00;;;;;;;18.63;100.00;101311.88;5091039;28;20087;-74
2023/10/11 11:57:54;;;;;;;7.80;3.53;;;;;;;18.64;100.00;101302.97;5094759;28;20067;-74
2023/10/11 12:02:52;;;;;;;5.30;3.45;;;;;;;18.61;100.00;101309.34;5087415;28;20051;-74
2023/10/11 12:05:18;;;;;;;9.05;4.13;;;;;;;18.60;100.00;101312.09;5091573;28;20028;-74
2023/10/11 12:07:44;;;;;;;13.25;4.25;;;;;;;18.57;100.00;101304.31;5089523;28;20036;-74
2023/10/11 12:10:23;;;;;;;14.50;4.72;;;;;;;18.55;100.00;101306.22;5088846;28;20044;-74
2023/10/11 12:12:53;;;;;;;18.13;4.93;;;;;;;18.54;100.00;101310.69;5083390;28;20319;-74